createdAt,value
2024-04-30T00:00:09.192Z,8.73
2024-04-30T00:02:38.819Z,8.77
2024-04-30T00:05:06.195Z,9.67
2024-04-30T00:07:40.330Z,9.67
2024-04-30T00:10:08.095Z,10.70
2024-04-30T00:12:37.772Z,9.43
2024-04-30T00:15:05.235Z,8.23
2024-04-30T00:17:35.119Z,12.77
2024-04-30T00:20:05.021Z,9.30
2024-04-30T00:22:32.124Z,11.73
2024-04-30T00:25:04.498Z,14.60
2024-04-30T00:27:31.554Z,11.70
2024-04-30T00:30:01.298Z,9.50
2024-04-30T00:32:28.382Z,10.20
2024-04-30T00:34:58.030Z,12.00
2024-04-30T00:37:25.127Z,10.50
2024-04-30T00:39:54.835Z,10.30
2024-04-30T00:42:24.502Z,10.73
2024-04-30T00:44:54.120Z,9.23
2024-04-30T00:47:21.499Z,8.83
2024-04-30T00:49:51.675Z,8.20
2024-04-30T00:52:19.292Z,9.83
2024-04-30T00:54:48.944Z,11.73
2024-04-30T00:57:17.262Z,9.03
2024-04-30T00:59:49.489Z,9.97
2024-04-30T01:02:16.774Z,8.90
2024-04-30T01:04:46.847Z,10.07
2024-04-30T01:07:13.942Z,10.87
2024-04-30T01:09:43.593Z,8.50
2024-04-30T01:12:10.823Z,9.70
2024-04-30T01:14:40.428Z,10.30
2024-04-30T01:17:10.150Z,10.07
2024-04-30T01:19:39.835Z,10.20
2024-04-30T01:22:07.013Z,11.10
2024-04-30T01:24:39.245Z,9.63
2024-04-30T01:27:06.298Z,9.20
2024-04-30T01:29:36.173Z,8.93
2024-04-30T01:32:03.384Z,11.33
2024-04-30T01:34:33.966Z,8.53
2024-04-30T01:37:01.131Z,9.63
2024-04-30T01:39:30.831Z,9.17
2024-04-30T01:42:00.544Z,8.90
2024-04-30T01:44:30.258Z,8.90
2024-04-30T01:46:57.313Z,11.47
2024-04-30T01:49:27.153Z,10.33
2024-04-30T01:51:54.245Z,8.53
2024-04-30T01:54:23.899Z,8.47
2024-04-30T01:56:51.166Z,12.17
2024-04-30T01:59:23.478Z,9.27
2024-04-30T02:01:50.707Z,9.97
2024-04-30T02:04:20.474Z,9.83
2024-04-30T02:06:47.533Z,10.40
2024-04-30T02:09:17.142Z,15.20
2024-04-30T02:11:44.357Z,9.00
2024-04-30T02:14:13.996Z,9.27
2024-04-30T02:16:43.671Z,9.17
2024-04-30T02:19:13.378Z,9.37
2024-04-30T02:21:43.058Z,8.67
2024-04-30T02:24:10.159Z,9.20
2024-04-30T02:26:39.846Z,10.40
2024-04-30T02:29:06.917Z,10.40
2024-04-30T02:31:52.591Z,12.20
2024-04-30T02:34:28.855Z,10.20
2024-04-30T02:36:59.146Z,10.00
2024-04-30T02:39:29.125Z,10.50
2024-04-30T02:41:56.186Z,9.40
2024-04-30T02:44:25.846Z,12.07
2024-04-30T02:46:52.949Z,10.20
2024-04-30T02:49:25.278Z,11.90
2024-04-30T02:51:52.398Z,9.40
2024-04-30T02:54:22.096Z,10.10
2024-04-30T02:56:49.187Z,12.47
2024-04-30T02:59:18.857Z,12.20
2024-04-30T03:01:46.089Z,9.30
2024-04-30T03:04:15.964Z,15.20
2024-04-30T03:06:45.703Z,10.47
2024-04-30T03:09:15.471Z,10.87
2024-04-30T03:11:45.360Z,8.27
2024-04-30T03:14:15.287Z,9.37
2024-04-30T03:16:42.823Z,11.00
2024-04-30T03:19:12.750Z,11.20
2024-04-30T03:21:39.817Z,10.73
2024-04-30T03:24:12.255Z,9.83
2024-04-30T03:26:43.099Z,9.00
2024-04-30T03:29:12.792Z,9.43
2024-04-30T03:31:39.945Z,9.87
2024-04-30T03:34:09.727Z,13.30
2024-04-30T03:36:36.838Z,12.10
2024-04-30T03:39:06.685Z,9.53
2024-04-30T03:41:39.001Z,12.27
2024-04-30T03:44:08.880Z,12.73
2024-04-30T03:46:38.670Z,9.77
2024-04-30T03:49:08.431Z,10.87
2024-04-30T03:51:35.495Z,10.53
2024-04-30T03:54:05.289Z,12.43
2024-04-30T03:56:32.303Z,11.03
2024-04-30T03:59:06.338Z,12.03
2024-04-30T04:01:33.509Z,9.13
2024-04-30T04:04:03.335Z,13.20
2024-04-30T04:06:30.572Z,11.63
2024-04-30T04:09:01.476Z,11.43
2024-04-30T04:11:49.300Z,9.60
2024-04-30T04:14:37.515Z,9.70
2024-04-30T04:17:07.568Z,10.43
2024-04-30T04:19:37.575Z,10.60
2024-04-30T04:22:05.091Z,10.27
2024-04-30T04:24:34.823Z,12.20
2024-04-30T04:27:01.898Z,13.53
2024-04-30T04:29:34.893Z,9.70
2024-04-30T04:32:02.121Z,10.63
2024-04-30T04:34:32.995Z,12.57
2024-04-30T04:37:00.132Z,10.67
2024-04-30T04:39:29.807Z,15.20
2024-04-30T04:41:56.869Z,9.40
2024-04-30T04:44:26.506Z,10.90
2024-04-30T04:46:56.235Z,9.93
2024-04-30T04:49:26.075Z,11.63
2024-04-30T04:51:53.167Z,10.90
2024-04-30T04:54:22.837Z,12.17
2024-04-30T04:56:49.950Z,9.57
2024-04-30T04:59:19.575Z,9.20
2024-04-30T05:01:46.727Z,10.40
2024-04-30T05:04:19.089Z,10.37
2024-04-30T05:06:49.942Z,12.53
2024-04-30T05:09:20.035Z,10.83
2024-04-30T05:11:47.106Z,9.50
2024-04-30T05:14:16.833Z,10.90
2024-04-30T05:16:44.028Z,10.03
2024-04-30T05:19:13.737Z,10.37
2024-04-30T05:21:43.486Z,10.53
2024-04-30T05:24:13.098Z,10.40
2024-04-30T05:26:40.192Z,9.73
2024-04-30T05:29:09.879Z,10.63
2024-04-30T05:31:38.169Z,12.10
2024-04-30T05:34:08.077Z,13.03
2024-04-30T05:36:35.167Z,11.37
2024-04-30T05:39:07.587Z,11.03
2024-04-30T05:41:34.671Z,12.60
2024-04-30T05:44:04.347Z,16.20
2024-04-30T05:46:31.765Z,11.37
2024-04-30T05:49:01.696Z,12.13
2024-04-30T05:51:28.747Z,13.97
2024-04-30T05:53:58.386Z,15.07
2024-04-30T05:56:28.159Z,14.10
2024-04-30T05:58:57.833Z,14.83
2024-04-30T06:01:25.060Z,14.87
2024-04-30T06:03:54.843Z,12.47
2024-04-30T06:06:24.709Z,13.40
2024-04-30T06:08:54.433Z,12.20
2024-04-30T06:11:21.609Z,14.60
2024-04-30T06:13:53.903Z,14.50
2024-04-30T06:16:21.013Z,15.83
2024-04-30T06:18:50.856Z,15.67
2024-04-30T06:21:30.432Z,14.33
2024-04-30T06:24:01.203Z,14.17
2024-04-30T06:26:28.250Z,16.57
2024-04-30T06:29:00.543Z,15.07
2024-04-30T06:31:27.754Z,13.17
2024-04-30T06:33:57.597Z,15.23
2024-04-30T06:36:24.743Z,13.70
2024-04-30T06:38:54.386Z,11.83
2024-04-30T06:41:21.614Z,12.10
2024-04-30T06:43:51.249Z,14.00
2024-04-30T06:46:20.938Z,13.80
2024-04-30T06:48:51.274Z,14.27
2024-04-30T06:51:18.652Z,15.03
2024-04-30T06:53:48.308Z,15.50
2024-04-30T06:56:15.391Z,13.57
2024-04-30T06:58:45.139Z,12.03
2024-04-30T07:01:12.239Z,15.70
2024-04-30T07:03:44.526Z,12.47
2024-04-30T07:06:11.661Z,13.23
2024-04-30T07:08:41.325Z,15.77
2024-04-30T07:11:09.289Z,11.43
2024-04-30T07:13:39.162Z,12.47
2024-04-30T07:16:06.653Z,11.63
2024-04-30T07:18:36.661Z,17.00
2024-04-30T07:21:06.545Z,9.90
2024-04-30T07:23:36.206Z,11.00
2024-04-30T07:26:03.372Z,10.90
2024-04-30T07:28:33.034Z,10.20
2024-04-30T07:31:00.080Z,10.07
2024-04-30T07:33:29.776Z,13.50
2024-04-30T07:35:56.828Z,13.20
2024-04-30T07:38:29.067Z,13.10
2024-04-30T07:40:56.151Z,11.20
2024-04-30T07:43:25.838Z,13.63
2024-04-30T07:45:55.486Z,12.40
2024-04-30T07:48:22.671Z,13.30
2024-04-30T07:50:52.395Z,13.50
2024-04-30T07:53:19.472Z,11.77
2024-04-30T07:55:51.735Z,11.80
2024-04-30T07:58:18.827Z,14.10
2024-04-30T08:00:48.508Z,14.00
2024-04-30T08:03:15.714Z,12.47
2024-04-30T08:05:45.433Z,12.77
2024-04-30T08:08:13.065Z,13.00
2024-04-30T08:10:42.850Z,14.37
2024-04-30T08:13:12.603Z,14.40
2024-04-30T08:15:42.298Z,15.00
2024-04-30T08:18:14.068Z,12.30
2024-04-30T08:20:41.193Z,12.77
2024-04-30T08:23:10.821Z,9.03
2024-04-30T08:25:37.926Z,11.63
2024-04-30T08:28:10.488Z,10.03
2024-04-30T08:30:40.478Z,11.30
2024-04-30T08:33:10.735Z,10.20
2024-04-30T08:35:38.120Z,12.37
2024-04-30T08:38:10.278Z,12.03
2024-04-30T08:40:37.617Z,11.23
2024-04-30T08:43:07.746Z,14.37
2024-04-30T08:45:35.555Z,11.90
2024-04-30T08:48:10.500Z,12.37
2024-04-30T08:50:42.383Z,10.90
2024-04-30T08:53:13.428Z,13.40
2024-04-30T08:55:42.974Z,11.70
2024-04-30T08:58:12.850Z,9.67
2024-04-30T09:00:39.929Z,12.57
2024-04-30T09:03:13.016Z,10.30
2024-04-30T09:05:46.078Z,18.87
2024-04-30T09:08:15.611Z,11.20
2024-04-30T09:10:45.407Z,10.70
2024-04-30T09:13:12.697Z,10.30
2024-04-30T09:15:42.373Z,12.07
2024-04-30T09:18:12.246Z,15.03
2024-04-30T09:20:47.979Z,12.83
2024-04-30T09:23:26.599Z,14.27
2024-04-30T09:25:56.518Z,14.57
2024-04-30T09:28:24.078Z,10.80
2024-04-30T09:31:00.462Z,12.73
2024-04-30T09:33:33.712Z,13.90
2024-04-30T09:36:06.120Z,13.27
2024-04-30T09:38:40.372Z,12.03
2024-04-30T09:41:11.405Z,11.87
2024-04-30T09:43:41.876Z,12.30
2024-04-30T09:46:09.427Z,15.80
2024-04-30T09:48:44.084Z,11.00
2024-04-30T09:51:13.821Z,13.60
2024-04-30T09:53:44.481Z,13.73
2024-04-30T09:56:14.005Z,13.20
2024-04-30T09:58:43.892Z,9.80
2024-04-30T10:01:14.659Z,14.73
2024-04-30T10:03:48.887Z,13.73
2024-04-30T10:06:17.750Z,11.40
2024-04-30T10:08:47.963Z,11.97
2024-04-30T10:11:15.102Z,15.90
2024-04-30T10:13:51.895Z,11.63
2024-04-30T10:16:20.541Z,11.73
2024-04-30T10:19:03.896Z,12.83
2024-04-30T10:21:35.014Z,11.03
2024-04-30T10:24:20.167Z,11.60
2024-04-30T10:26:48.427Z,8.53
2024-04-30T10:29:19.347Z,13.47
2024-04-30T10:31:48.426Z,11.80
2024-04-30T10:34:21.509Z,11.93
2024-04-30T10:36:48.851Z,11.30
2024-04-30T10:39:28.899Z,11.80
2024-04-30T10:41:56.148Z,8.60
2024-04-30T10:44:26.046Z,10.87
2024-04-30T10:46:56.889Z,7.50
2024-04-30T10:49:29.216Z,10.43
2024-04-30T10:51:56.498Z,10.60
2024-04-30T10:54:26.737Z,9.80
2024-04-30T10:56:53.891Z,12.70
2024-04-30T10:59:29.305Z,11.27
2024-04-30T11:01:59.227Z,12.50
2024-04-30T11:04:34.045Z,10.30
2024-04-30T11:07:01.288Z,10.90
2024-04-30T11:09:31.073Z,13.17
2024-04-30T11:12:02.474Z,11.20
2024-04-30T11:14:32.382Z,14.27
2024-04-30T11:16:59.900Z,9.40
2024-04-30T11:19:29.662Z,9.93
2024-04-30T11:21:59.359Z,10.77
2024-04-30T11:24:29.016Z,12.33
2024-04-30T11:26:56.125Z,12.00
2024-04-30T11:29:34.990Z,11.13
2024-04-30T11:32:06.190Z,10.27
2024-04-30T11:34:36.307Z,10.20
2024-04-30T11:37:08.922Z,13.93
2024-04-30T11:39:36.089Z,11.07
2024-04-30T11:42:17.531Z,12.63
2024-04-30T11:44:49.027Z,11.73
2024-04-30T11:47:18.832Z,12.63
2024-04-30T11:49:45.998Z,11.50
2024-04-30T11:52:18.835Z,13.00
2024-04-30T11:54:46.207Z,13.60
2024-04-30T11:57:15.914Z,13.20
2024-04-30T11:59:43.232Z,11.47
2024-04-30T12:02:13.333Z,10.10
2024-04-30T12:04:40.692Z,13.90
2024-04-30T12:07:10.631Z,13.07
2024-04-30T12:09:40.456Z,17.50
2024-04-30T12:12:10.548Z,17.63
2024-04-30T12:14:37.635Z,13.70
2024-04-30T12:17:10.849Z,16.33
2024-04-30T12:19:38.039Z,11.70
2024-04-30T12:22:08.010Z,13.57
2024-04-30T12:24:35.132Z,12.93
2024-04-30T12:27:07.862Z,13.20
2024-04-30T12:29:35.140Z,15.70
2024-04-30T12:32:07.652Z,17.60
2024-04-30T12:34:36.656Z,12.13
2024-04-30T12:37:08.002Z,14.50
2024-04-30T12:39:35.178Z,13.73
2024-04-30T12:42:08.118Z,16.87
2024-04-30T12:44:35.288Z,11.70
2024-04-30T12:47:06.342Z,14.03
2024-04-30T12:49:33.441Z,14.73
2024-04-30T12:52:03.186Z,13.37
2024-04-30T12:54:31.487Z,15.23
2024-04-30T12:57:01.208Z,12.53
2024-04-30T12:59:31.115Z,12.87
2024-04-30T13:02:01.084Z,15.53
2024-04-30T13:04:28.435Z,27.23
2024-04-30T13:06:58.149Z,12.90
2024-04-30T13:09:25.222Z,15.70
2024-04-30T13:11:54.957Z,13.30
2024-04-30T13:14:22.046Z,10.50
2024-04-30T13:16:54.364Z,12.57
2024-04-30T13:19:24.048Z,12.67
2024-04-30T13:21:51.482Z,16.27
2024-04-30T13:24:21.257Z,17.90
2024-04-30T13:26:48.371Z,20.10
2024-04-30T13:29:18.090Z,13.10
2024-04-30T13:31:45.496Z,14.93
2024-04-30T13:34:18.319Z,12.33
2024-04-30T13:36:45.487Z,11.00
2024-04-30T13:39:15.723Z,18.13
2024-04-30T13:41:42.936Z,14.77
2024-04-30T13:44:12.604Z,16.67
2024-04-30T13:46:39.839Z,17.57
2024-04-30T13:49:09.658Z,15.47
2024-04-30T13:51:39.361Z,11.67
2024-04-30T13:54:09.522Z,15.70
2024-04-30T13:56:36.597Z,20.80
2024-04-30T13:59:08.993Z,15.73
2024-04-30T14:01:36.624Z,14.80
2024-04-30T14:04:06.363Z,14.43
2024-04-30T14:06:33.775Z,14.40
2024-04-30T14:09:08.343Z,18.13
2024-04-30T14:11:36.954Z,16.07
2024-04-30T14:14:07.359Z,14.33
2024-04-30T14:16:34.628Z,16.83
2024-04-30T14:19:04.475Z,23.80
2024-04-30T14:21:31.577Z,12.97
2024-04-30T14:24:01.588Z,15.77
2024-04-30T14:26:31.830Z,13.20
2024-04-30T14:29:01.526Z,16.57
2024-04-30T14:31:31.174Z,14.83
2024-04-30T14:33:58.277Z,12.03
2024-04-30T14:36:38.813Z,18.30
2024-04-30T14:39:11.474Z,13.80
2024-04-30T14:41:46.064Z,13.43
2024-04-30T14:44:13.149Z,14.67
2024-04-30T14:46:43.971Z,13.87
2024-04-30T14:49:11.862Z,16.10
2024-04-30T14:51:43.406Z,14.13
2024-04-30T14:54:12.016Z,17.60
2024-04-30T14:56:44.479Z,15.10
2024-04-30T14:59:11.541Z,16.57
2024-04-30T15:01:44.918Z,13.20
2024-04-30T15:04:12.249Z,15.10
2024-04-30T15:06:42.020Z,13.93
2024-04-30T15:09:09.809Z,15.03
2024-04-30T15:11:39.533Z,13.47
2024-04-30T15:14:12.014Z,15.10
2024-04-30T15:16:42.303Z,14.13
2024-04-30T15:19:12.136Z,16.83
2024-04-30T15:21:42.079Z,17.80
2024-04-30T15:24:12.150Z,17.50
2024-04-30T15:26:39.325Z,18.77
2024-04-30T15:29:15.075Z,17.33
2024-04-30T15:31:42.309Z,12.97
2024-04-30T15:34:12.121Z,17.00
2024-04-30T15:36:42.967Z,21.43
2024-04-30T15:39:12.766Z,13.23
2024-04-30T15:41:39.855Z,16.87
2024-04-30T15:44:12.282Z,13.40
2024-04-30T15:46:40.150Z,19.23
2024-04-30T15:49:10.003Z,16.40
2024-04-30T15:51:39.754Z,14.13
2024-04-30T15:54:12.618Z,22.10
2024-04-30T15:56:46.572Z,14.87
2024-04-30T15:59:26.309Z,16.03
2024-04-30T16:01:53.576Z,14.07
2024-04-30T16:04:23.437Z,14.57
2024-04-30T16:06:50.552Z,15.07
2024-04-30T16:09:20.237Z,17.77
2024-04-30T16:11:49.991Z,13.87
2024-04-30T16:14:18.138Z,17.37
2024-04-30T16:16:50.821Z,16.77
2024-04-30T16:19:18.201Z,17.87
2024-04-30T16:21:53.872Z,17.43
2024-04-30T16:24:21.333Z,16.43
2024-04-30T16:26:51.071Z,20.67
2024-04-30T16:29:18.252Z,19.77
2024-04-30T16:31:50.540Z,17.70
2024-04-30T16:34:17.638Z,15.23
2024-04-30T16:36:47.341Z,16.67
2024-04-30T16:39:17.104Z,16.80
2024-04-30T16:41:44.301Z,13.67
2024-04-30T16:44:14.472Z,18.10
2024-04-30T16:46:41.744Z,18.70
2024-04-30T16:49:14.189Z,18.40
2024-04-30T16:51:41.295Z,17.20
2024-04-30T16:54:12.246Z,17.63
2024-04-30T16:56:39.602Z,16.67
2024-04-30T16:59:09.288Z,16.47
2024-04-30T17:01:40.839Z,15.17
2024-04-30T17:04:15.061Z,15.57
2024-04-30T17:06:45.794Z,17.77
2024-04-30T17:09:18.450Z,20.10
2024-04-30T17:11:46.696Z,14.57
2024-04-30T17:14:16.653Z,16.23
2024-04-30T17:16:46.171Z,14.83
2024-04-30T17:19:18.580Z,17.43
2024-04-30T17:21:46.310Z,13.87
2024-04-30T17:24:17.201Z,12.13
2024-04-30T17:26:45.875Z,14.47
2024-04-30T17:29:16.181Z,20.00
2024-04-30T17:31:43.627Z,14.70
2024-04-30T17:34:13.595Z,21.70
2024-04-30T17:36:46.164Z,17.13
2024-04-30T17:39:18.151Z,15.90
2024-04-30T17:41:48.411Z,19.97
2024-04-30T17:44:15.541Z,20.10
2024-04-30T17:46:45.585Z,20.20
2024-04-30T17:49:13.160Z,14.77
2024-04-30T17:51:47.061Z,18.13
2024-04-30T17:54:16.120Z,18.20
2024-04-30T17:56:46.958Z,14.30
2024-04-30T17:59:14.087Z,17.63
2024-04-30T18:01:48.601Z,15.00
2024-04-30T18:04:16.005Z,18.80
2024-04-30T18:06:48.574Z,14.60
2024-04-30T18:09:15.744Z,16.00
2024-04-30T18:11:46.812Z,14.30
2024-04-30T18:14:13.964Z,17.73
2024-04-30T18:16:43.684Z,18.60
2024-04-30T18:19:11.011Z,20.13
2024-04-30T18:21:44.027Z,19.07
2024-04-30T18:24:13.815Z,17.13
2024-04-30T18:26:43.822Z,17.20
2024-04-30T18:29:11.269Z,19.67
2024-04-30T18:31:40.997Z,22.80
2024-04-30T18:34:08.223Z,18.03
2024-04-30T18:36:40.899Z,17.53
2024-04-30T18:39:08.967Z,22.57
2024-04-30T18:41:42.473Z,12.87
2024-04-30T18:44:10.080Z,13.10
2024-04-30T18:46:39.759Z,17.50
2024-04-30T18:49:07.120Z,15.37
2024-04-30T18:51:42.131Z,17.53
2024-04-30T18:54:09.385Z,20.60
2024-04-30T18:56:43.981Z,15.10
2024-04-30T18:59:11.118Z,18.83
2024-04-30T19:01:40.837Z,20.27
2024-04-30T19:04:10.629Z,14.27
2024-04-30T19:06:41.690Z,17.17
2024-04-30T19:09:11.425Z,20.17
2024-04-30T19:11:46.976Z,16.23
2024-04-30T19:14:14.165Z,14.93
2024-04-30T19:16:45.446Z,14.30
2024-04-30T19:20:07.634Z,16.37
2024-04-30T19:22:34.708Z,23.77
2024-04-30T19:25:04.484Z,18.40
2024-04-30T19:27:34.257Z,19.30
2024-04-30T19:30:06.655Z,17.70
2024-04-30T19:32:34.411Z,17.83
2024-04-30T19:35:04.219Z,17.80
2024-04-30T19:37:32.791Z,16.77
2024-04-30T19:40:02.598Z,15.10
2024-04-30T19:42:29.777Z,17.80
2024-04-30T19:45:02.230Z,13.37
2024-04-30T19:47:29.416Z,17.87
2024-04-30T19:49:59.164Z,25.33
2024-04-30T19:52:26.321Z,21.00
2024-04-30T19:54:56.055Z,14.97
2024-04-30T19:57:23.153Z,16.17
2024-04-30T19:59:52.921Z,20.70
2024-04-30T20:02:23.171Z,14.97
2024-04-30T20:04:52.980Z,26.10
2024-04-30T20:07:20.187Z,16.57
2024-04-30T20:09:49.978Z,23.93
2024-04-30T20:12:17.100Z,25.93
2024-04-30T20:14:46.801Z,17.03
2024-04-30T20:17:13.915Z,18.97
2024-04-30T20:19:46.240Z,23.53
2024-04-30T20:22:13.341Z,21.97
2024-04-30T20:24:43.052Z,17.07
2024-04-30T20:27:10.211Z,20.83
2024-04-30T20:29:39.919Z,17.57
2024-04-30T20:32:07.262Z,22.17
2024-04-30T20:34:36.970Z,16.67
2024-04-30T20:37:06.793Z,20.30
2024-04-30T20:39:39.184Z,23.53
2024-04-30T20:42:06.291Z,20.30
2024-04-30T20:44:35.935Z,21.73
2024-04-30T20:47:03.540Z,29.13
2024-04-30T20:49:33.970Z,26.30
2024-04-30T20:52:01.129Z,21.17
2024-04-30T20:54:33.551Z,19.97
2024-04-30T20:57:00.646Z,18.23
2024-04-30T20:59:30.299Z,21.30
2024-04-30T21:01:57.481Z,22.37
2024-04-30T21:04:27.416Z,20.37
2024-04-30T21:06:57.183Z,18.03
2024-04-30T21:09:24.298Z,15.27
2024-04-30T21:11:56.608Z,22.03
2024-04-30T21:14:23.663Z,26.57
2024-04-30T21:16:53.318Z,19.33
2024-04-30T21:19:20.688Z,24.93
2024-04-30T21:21:50.611Z,24.00
2024-04-30T21:24:17.780Z,20.80
2024-04-30T21:26:47.783Z,29.40
2024-04-30T21:29:17.506Z,28.43
2024-04-30T21:31:47.155Z,22.27
2024-04-30T21:34:14.555Z,23.30
2024-04-30T21:36:46.507Z,32.77
2024-04-30T21:39:14.166Z,18.50
2024-04-30T21:41:43.918Z,17.27
2024-04-30T21:44:10.966Z,15.43
2024-04-30T21:46:45.583Z,24.33
2024-04-30T21:49:13.152Z,20.03
2024-04-30T21:51:46.015Z,18.83
2024-04-30T21:54:13.923Z,20.40
2024-04-30T21:56:43.738Z,20.03
2024-04-30T21:59:11.118Z,21.20
2024-04-30T22:01:40.867Z,20.80
2024-04-30T22:04:10.715Z,20.77
2024-04-30T22:06:40.462Z,23.83
2024-04-30T22:09:07.598Z,20.47
2024-04-30T22:11:37.810Z,19.43
2024-04-30T22:14:04.997Z,22.17
2024-04-30T22:16:34.706Z,23.40
2024-04-30T22:19:01.891Z,22.87
2024-04-30T22:21:34.259Z,22.97
2024-04-30T22:24:01.399Z,23.60
2024-04-30T22:26:32.295Z,26.67
2024-04-30T22:28:59.486Z,18.53
2024-04-30T22:31:29.271Z,21.37
2024-04-30T22:33:56.539Z,22.07
2024-04-30T22:36:27.002Z,21.37
2024-04-30T22:38:56.794Z,21.30
2024-04-30T22:41:26.513Z,20.50
2024-04-30T22:43:53.557Z,18.67
2024-04-30T22:46:23.245Z,21.27
2024-04-30T22:48:50.408Z,25.83
2024-04-30T22:51:20.652Z,23.67
2024-04-30T22:53:51.088Z,20.10
2024-04-30T22:56:28.875Z,20.80
2024-04-30T22:58:57.185Z,18.20
2024-04-30T23:01:26.900Z,23.30
2024-04-30T23:03:54.063Z,26.53
2024-04-30T23:06:23.819Z,29.67
2024-04-30T23:08:50.938Z,24.00
2024-04-30T23:11:20.658Z,23.80
2024-04-30T23:13:50.340Z,26.80
2024-04-30T23:16:20.005Z,23.47
2024-04-30T23:18:47.178Z,24.57
2024-04-30T23:21:16.999Z,27.03
2024-04-30T23:23:44.070Z,23.10
2024-04-30T23:26:18.580Z,24.73
2024-04-30T23:28:45.657Z,21.23
2024-04-30T23:31:17.952Z,21.97
2024-04-30T23:33:45.053Z,23.00
2024-04-30T23:36:14.783Z,18.97
2024-04-30T23:38:41.876Z,27.97
2024-04-30T23:41:11.594Z,19.07
2024-04-30T23:43:38.943Z,20.10
2024-04-30T23:46:09.348Z,25.00
2024-04-30T23:48:39.081Z,20.53
2024-04-30T23:51:13.855Z,19.83
2024-04-30T23:53:41.424Z,20.90
2024-04-30T23:56:11.136Z,23.60
2024-04-30T23:58:38.356Z,22.00
